Time;durP1;ratioP1;P1;durP2;ratioP2;P2;SDS_P1;SDS_P2;PMS_P1;PMS_P2;Temp;Humidity;BMP_temperature;BMP_pressure;BME280_temperature;BME280_humidity;BME280_pressure;Samples;Min_cycle;Max_cycle;Signal;HPM_P1;HPM_P2
2022/11/30 00:00:05;;;;;;;138.95;33.58;;;;;;;5.55;100.00;102282.22;5203027;28;20075;-75
2022/11/30 00:02:35;;;;;;;137.93;33.28;;;;;;;5.52;100.00;102284.22;5202742;28;20463;-76
2022/11/30 00:05:06;;;;;;;153.93;34.33;;;;;;;5.51;100.00;102287.84;5202851;28;20028;-76
2022/11/30 00:07:37;;;;;;;135.40;32.22;;;;;;;5.50;100.00;102288.78;5202052;28;20222;-75
2022/11/30 00:10:07;;;;;;;119.10;31.15;;;;;;;5.48;100.00;102290.72;5202951;28;20029;-75
2022/11/30 00:12:41;;;;;;;179.02;34.72;;;;;;;5.48;100.00;102291.56;5202739;28;20064;-74
2022/11/30 00:15:13;;;;;;;131.63;32.63;;;;;;;5.50;100.00;102294.13;5201676;28;20484;-76
2022/11/30 00:17:44;;;;;;;131.68;30.58;;;;;;;5.51;100.00;102291.34;5201630;28;20025;-76
2022/11/30 00:20:14;;;;;;;123.57;31.27;;;;;;;5.50;100.00;102284.31;5202890;28;20395;-75
2022/11/30 00:22:45;;;;;;;142.43;33.10;;;;;;;5.49;100.00;102287.09;5202542;28;20035;-75
2022/11/30 00:25:15;;;;;;;244.30;34.47;;;;;;;5.46;100.00;102288.13;5202511;28;20369;-75
2022/11/30 00:27:46;;;;;;;145.70;33.53;;;;;;;5.41;100.00;102295.56;5193844;28;20058;-76
2022/11/30 00:30:16;;;;;;;199.88;37.13;;;;;;;5.42;100.00;102286.59;5197449;28;20479;-76
2022/11/30 00:32:47;;;;;;;135.13;29.90;;;;;;;5.44;100.00;102287.38;5201071;28;20026;-75
2022/11/30 00:35:18;;;;;;;135.82;31.17;;;;;;;5.43;100.00;102291.84;5202543;28;20017;-75
2022/11/30 00:37:48;;;;;;;148.68;30.45;;;;;;;5.42;100.00;102287.50;5202216;28;20053;-75
2022/11/30 00:40:18;;;;;;;128.45;32.50;;;;;;;5.42;100.00;102290.16;5202668;28;20072;-75
2022/11/30 00:42:49;;;;;;;142.77;31.67;;;;;;;5.41;100.00;102299.06;5202270;28;20163;-75
2022/11/30 00:45:19;;;;;;;125.85;32.17;;;;;;;5.42;100.00;102298.13;5202558;28;20013;-74
2022/11/30 00:47:50;;;;;;;310.65;38.22;;;;;;;5.39;100.00;102282.34;5202371;28;20029;-75
2022/11/30 00:50:20;;;;;;;120.15;30.05;;;;;;;5.39;100.00;102287.66;5206651;28;20109;-74
2022/11/30 00:52:51;;;;;;;124.63;31.27;;;;;;;5.38;100.00;102285.97;5205886;28;20483;-74
2022/11/30 00:55:21;;;;;;;263.85;35.63;;;;;;;5.37;100.00;102294.03;5206250;28;20051;-74
2022/11/30 00:57:52;;;;;;;136.00;31.02;;;;;;;5.36;100.00;102290.50;5205355;28;20030;-74
2022/11/30 01:00:22;;;;;;;110.63;29.50;;;;;;;5.36;100.00;102295.84;5206106;28;20025;-74
2022/11/30 01:02:54;;;;;;;213.93;33.75;;;;;;;5.37;100.00;102299.34;5206307;28;20021;-74
2022/11/30 01:05:25;;;;;;;310.60;40.05;;;;;;;5.35;100.00;102294.13;5206094;28;20036;-74
2022/11/30 01:07:58;;;;;;;221.63;36.88;;;;;;;5.31;100.00;102299.75;5204755;28;20496;-73
2022/11/30 01:10:29;;;;;;;184.38;35.60;;;;;;;5.31;100.00;102292.59;5205678;28;20025;-74
2022/11/30 01:13:00;;;;;;;136.73;30.17;;;;;;;5.31;100.00;102289.94;5205818;28;20018;-74
2022/11/30 01:15:35;;;;;;;181.80;36.08;;;;;;;5.30;100.00;102287.41;5205631;28;20021;-74
2022/11/30 01:18:06;;;;;;;105.72;27.85;;;;;;;5.28;100.00;102298.16;5204931;28;20037;-74
2022/11/30 01:20:41;;;;;;;161.55;32.15;;;;;;;5.31;100.00;102289.09;5205845;28;20033;-74
2022/11/30 01:23:11;;;;;;;114.57;28.13;;;;;;;5.32;100.00;102288.13;5205679;28;20494;-74
2022/11/30 01:25:51;;;;;;;136.98;28.80;;;;;;;5.33;100.00;102292.53;5205826;28;20021;-75
2022/11/30 01:28:22;;;;;;;116.45;27.05;;;;;;;5.31;100.00;102289.94;5191857;28;20053;-75
2022/11/30 01:31:01;;;;;;;118.82;30.55;;;;;;;5.32;100.00;102297.00;5205024;28;20064;-74
2022/11/30 01:33:32;;;;;;;127.32;29.48;;;;;;;5.32;100.00;102291.69;5205422;28;20028;-74
2022/11/30 01:36:06;;;;;;;171.85;33.60;;;;;;;5.31;100.00;102295.28;5205494;28;20039;-73
2022/11/30 01:38:49;;;;;;;127.40;30.95;;;;;;;5.32;100.00;102294.34;5204872;28;20067;-74
2022/11/30 01:41:23;;;;;;;210.48;30.20;;;;;;;5.27;100.00;102293.78;5205554;28;20035;-74
2022/11/30 01:43:56;;;;;;;143.77;28.38;;;;;;;5.24;100.00;102293.13;5205535;28;20287;-74
2022/11/30 01:46:53;;;;;;;130.63;29.27;;;;;;;5.23;100.00;102289.59;5204873;28;20112;-74
2022/11/30 01:49:28;;;;;;;166.32;30.27;;;;;;;5.22;100.00;102289.69;5205089;28;20530;-75
2022/11/30 01:52:06;;;;;;;262.23;34.85;;;;;;;5.17;100.00;102289.97;5191947;28;20033;-74
2022/11/30 01:54:42;;;;;;;141.43;28.60;;;;;;;5.15;100.00;102291.88;5205030;28;20053;-75
2022/11/30 01:57:35;;;;;;;212.45;32.22;;;;;;;5.16;100.00;102290.91;5204922;28;20041;-74
2022/11/30 02:00:09;;;;;;;231.90;30.70;;;;;;;5.16;100.00;102304.22;5204615;28;20061;-74
2022/11/30 02:02:44;;;;;;;132.80;27.23;;;;;;;5.16;100.00;102301.56;5204875;28;20091;-74
2022/11/30 02:05:16;;;;;;;165.57;32.33;;;;;;;5.16;100.00;102299.75;5205442;28;20025;-74
2022/11/30 02:07:46;;;;;;;121.63;27.27;;;;;;;5.16;100.00;102298.91;5204736;28;20108;-74
2022/11/30 02:10:25;;;;;;;120.65;28.33;;;;;;;5.16;100.00;102296.25;5204797;28;20116;-73
2022/11/30 02:13:17;;;;;;;136.50;26.85;;;;;;;5.15;100.00;102297.19;5204871;28;20079;-73
2022/11/30 02:16:22;;;;;;;123.97;27.52;;;;;;;5.15;100.00;102286.56;5204803;28;20487;-74
2022/11/30 02:19:12;;;;;;;128.68;26.10;;;;;;;5.16;100.00;102297.09;5204709;28;20025;-74
2022/11/30 02:21:55;;;;;;;179.13;30.33;;;;;;;5.13;100.00;102302.63;5203243;28;20443;-74
2022/11/30 02:25:05;;;;;;;105.28;24.40;;;;;;;5.09;100.00;102297.59;5193155;28;20048;-75
2022/11/30 02:28:09;;;;;;;130.73;23.98;;;;;;;5.08;100.00;102301.19;5190188;28;20082;-75
2022/11/30 02:30:53;;;;;;;133.43;28.08;;;;;;;5.05;100.00;102309.34;5204005;28;20028;-75
2022/11/30 02:33:28;;;;;;;146.00;26.92;;;;;;;5.05;100.00;102304.88;5203497;28;20530;-75
2022/11/30 02:36:00;;;;;;;115.50;25.13;;;;;;;5.05;100.00;102309.34;5204085;28;20025;-75
2022/11/30 02:38:32;;;;;;;110.55;24.90;;;;;;;5.04;100.00;102292.53;5203274;28;20024;-75
2022/11/30 02:41:02;;;;;;;112.88;25.70;;;;;;;5.05;100.00;102296.91;5204543;28;20044;-75
2022/11/30 02:43:34;;;;;;;131.07;28.35;;;;;;;5.03;100.00;102305.94;5203505;28;20013;-75
2022/11/30 02:46:18;;;;;;;127.05;26.75;;;;;;;5.01;100.00;102311.34;5203786;28;20483;-75
2022/11/30 02:48:58;;;;;;;106.35;24.52;;;;;;;5.04;100.00;102315.63;5203561;28;20033;-75
2022/11/30 02:51:30;;;;;;;102.15;25.70;;;;;;;5.08;100.00;102311.84;5204020;28;20112;-74
2022/11/30 02:54:01;;;;;;;116.60;26.60;;;;;;;5.10;100.00;102320.56;5203518;28;20026;-76
2022/11/30 02:56:32;;;;;;;115.70;25.55;;;;;;;5.09;100.00;102319.72;5203688;28;20070;-75
2022/11/30 02:59:04;;;;;;;86.68;25.10;;;;;;;5.15;100.00;102318.47;5203539;28;20030;-75
2022/11/30 03:01:35;;;;;;;94.93;24.52;;;;;;;5.15;100.00;102327.31;5202398;28;20112;-75
2022/11/30 03:04:05;;;;;;;96.03;25.10;;;;;;;5.12;100.00;102326.63;5203894;28;20055;-75
2022/11/30 03:06:36;;;;;;;100.97;23.77;;;;;;;5.06;100.00;102314.56;5190020;28;20112;-75
2022/11/30 03:09:07;;;;;;;97.93;25.25;;;;;;;5.13;100.00;102312.41;5203237;28;20025;-75
2022/11/30 03:11:38;;;;;;;108.38;27.25;;;;;;;5.10;100.00;102308.13;5202498;28;20543;-74
2022/11/30 03:14:09;;;;;;;128.55;26.20;;;;;;;5.12;100.00;102314.22;5204532;28;20029;-74
2022/11/30 03:16:40;;;;;;;124.18;27.83;;;;;;;5.10;100.00;102312.59;5206103;28;20029;-75
2022/11/30 03:19:11;;;;;;;110.30;25.42;;;;;;;5.09;100.00;102303.75;5209024;28;20033;-74
2022/11/30 03:21:42;;;;;;;99.80;26.10;;;;;;;5.14;100.00;102306.97;5203519;28;20026;-75
2022/11/30 03:24:12;;;;;;;156.50;28.88;;;;;;;5.12;100.00;102305.34;5203385;28;20028;-74
2022/11/30 03:26:43;;;;;;;125.93;26.73;;;;;;;5.12;100.00;102306.25;5203001;28;20029;-74
2022/11/30 03:29:14;;;;;;;111.75;26.38;;;;;;;5.11;100.00;102311.63;5189339;28;20083;-74
2022/11/30 03:31:44;;;;;;;140.48;28.45;;;;;;;5.11;100.00;102311.63;5202498;28;20064;-74
2022/11/30 03:34:15;;;;;;;113.20;26.00;;;;;;;5.11;100.00;102307.16;5203301;28;20040;-74
2022/11/30 03:36:46;;;;;;;112.80;27.40;;;;;;;5.12;100.00;102305.34;5203293;28;20498;-74
2022/11/30 03:39:16;;;;;;;118.53;27.90;;;;;;;5.14;100.00;102306.97;5203223;28;20100;-74
2022/11/30 03:41:47;;;;;;;125.40;30.67;;;;;;;5.16;100.00;102306.88;5203079;28;20478;-73
2022/11/30 03:44:17;;;;;;;119.70;29.48;;;;;;;5.16;100.00;102314.84;5202841;28;20057;-73
2022/11/30 03:46:48;;;;;;;143.43;31.67;;;;;;;5.13;100.00;102309.75;5202536;28;20029;-73
2022/11/30 03:49:18;;;;;;;111.03;27.58;;;;;;;5.14;100.00;102309.66;5201816;28;20391;-75
2022/11/30 03:51:49;;;;;;;121.25;29.73;;;;;;;5.15;100.00;102307.84;5203083;28;20029;-74
2022/11/30 03:54:20;;;;;;;180.55;31.58;;;;;;;5.12;100.00;102310.69;5203332;28;20017;-74
2022/11/30 03:56:50;;;;;;;135.23;31.67;;;;;;;5.15;100.00;102310.50;5202852;28;20026;-74
2022/11/30 03:59:21;;;;;;;143.27;32.63;;;;;;;5.12;100.00;102310.69;5202557;28;20525;-74
2022/11/30 04:01:52;;;;;;;124.72;30.45;;;;;;;5.12;100.00;102313.34;5203026;28;20368;-74
2022/11/30 04:04:22;;;;;;;130.18;30.20;;;;;;;5.09;100.00;102311.72;5202606;28;20033;-74
2022/11/30 04:06:53;;;;;;;135.50;30.08;;;;;;;5.11;100.00;102320.47;5202433;28;20029;-74
2022/11/30 04:09:23;;;;;;;137.52;31.08;;;;;;;5.08;100.00;102312.69;5202691;28;20115;-75
2022/11/30 04:11:54;;;;;;;123.72;29.55;;;;;;;5.09;100.00;102314.41;5202854;28;20029;-74
2022/11/30 04:14:24;;;;;;;267.83;38.53;;;;;;;5.10;100.00;102313.44;5202864;28;20026;-75
2022/11/30 04:16:55;;;;;;;178.93;36.40;;;;;;;5.10;100.00;102309.94;5202557;28;20056;-74
2022/11/30 04:19:25;;;;;;;187.40;35.83;;;;;;;5.09;100.00;102316.22;5201179;28;20025;-75
2022/11/30 04:21:56;;;;;;;126.88;30.40;;;;;;;5.07;100.00;102318.97;5204759;28;20017;-75
2022/11/30 04:24:26;;;;;;;130.18;33.10;;;;;;;5.13;100.00;102318.59;5206616;28;20025;-74
2022/11/30 04:26:57;;;;;;;120.13;29.13;;;;;;;5.12;100.00;102319.53;5204635;28;20530;-74
2022/11/30 04:29:27;;;;;;;124.57;32.83;;;;;;;5.13;100.00;102320.38;5194622;28;20017;-74
2022/11/30 04:31:57;;;;;;;209.48;36.28;;;;;;;5.12;100.00;102323.97;5205755;28;20072;-75
2022/11/30 04:34:28;;;;;;;151.27;32.58;;;;;;;5.12;100.00;102324.88;5206688;28;20116;-74
2022/11/30 04:36:58;;;;;;;236.60;35.53;;;;;;;5.12;100.00;102331.97;5206003;28;20079;-74
2022/11/30 04:39:32;;;;;;;234.45;36.70;;;;;;;5.09;100.00;102330.34;5206958;28;20082;-74
2022/11/30 04:42:03;;;;;;;139.38;34.15;;;;;;;5.08;100.00;102336.63;5206582;28;20479;-73
2022/11/30 04:44:33;;;;;;;215.80;35.17;;;;;;;5.07;100.00;102336.72;5205940;28;20051;-73
2022/11/30 04:47:04;;;;;;;253.85;37.83;;;;;;;5.02;100.00;102336.13;5205599;28;20025;-74
2022/11/30 04:49:34;;;;;;;225.07;36.40;;;;;;;4.99;100.00;102337.19;5206244;28;20045;-74
2022/11/30 04:52:05;;;;;;;160.80;33.88;;;;;;;5.00;100.00;102344.22;5206358;28;20033;-74
2022/11/30 04:54:35;;;;;;;171.43;37.40;;;;;;;4.99;100.00;102339.84;5206386;28;20360;-74
2022/11/30 04:57:06;;;;;;;197.10;53.85;;;;;;;5.03;100.00;102336.06;5205811;28;20036;-74
2022/11/30 04:59:36;;;;;;;198.50;44.08;;;;;;;5.05;100.00;102333.31;5206157;28;20108;-74
2022/11/30 05:02:06;;;;;;;265.85;61.33;;;;;;;5.07;100.00;102337.59;5205996;28;20018;-75
2022/11/30 05:04:37;;;;;;;164.57;37.95;;;;;;;5.06;100.00;102335.00;5205975;28;20458;-74
2022/11/30 05:07:08;;;;;;;215.98;77.35;;;;;;;5.04;100.00;102340.44;5205621;28;20122;-75
2022/11/30 05:09:38;;;;;;;152.30;37.33;;;;;;;5.05;100.00;102341.28;5205315;28;20091;-74
2022/11/30 05:12:08;;;;;;;147.73;35.90;;;;;;;5.08;100.00;102335.78;5205900;28;20066;-76
2022/11/30 05:14:39;;;;;;;125.13;29.88;;;;;;;5.07;100.00;102334.03;5206178;28;20053;-74
2022/11/30 05:17:09;;;;;;;142.50;30.38;;;;;;;5.09;100.00;102337.47;5205507;28;20025;-74
2022/11/30 05:19:40;;;;;;;126.38;30.58;;;;;;;5.09;100.00;102342.81;5205829;28;20025;-74
2022/11/30 05:22:10;;;;;;;184.25;33.92;;;;;;;5.06;100.00;102337.66;5205501;28;20017;-74
2022/11/30 05:24:41;;;;;;;134.23;32.92;;;;;;;5.03;100.00;102335.22;5205751;28;20475;-74
2022/11/30 05:27:11;;;;;;;161.50;35.80;;;;;;;5.01;100.00;102340.59;5201471;28;20157;-75
2022/11/30 05:29:42;;;;;;;138.30;34.25;;;;;;;5.01;100.00;102345.06;5196177;28;20060;-73
2022/11/30 05:32:12;;;;;;;137.18;34.20;;;;;;;5.01;100.00;102335.28;5205278;28;20124;-73
2022/11/30 05:34:43;;;;;;;126.10;34.70;;;;;;;4.98;100.00;102339.97;5204667;28;20029;-73
2022/11/30 05:37:13;;;;;;;134.50;34.28;;;;;;;4.98;100.00;102337.28;5205170;28;20065;-74
2022/11/30 05:39:44;;;;;;;140.95;32.90;;;;;;;5.03;100.00;102341.38;5205719;28;20109;-74
2022/11/30 05:42:14;;;;;;;111.90;30.95;;;;;;;5.05;100.00;102349.25;5205362;28;20025;-74
2022/11/30 05:44:46;;;;;;;140.93;31.85;;;;;;;5.01;100.00;102345.06;5204793;28;20053;-74
2022/11/30 05:47:17;;;;;;;116.35;28.98;;;;;;;5.01;100.00;102347.72;5204834;28;20758;-74
2022/11/30 05:49:47;;;;;;;140.05;31.33;;;;;;;5.00;100.00;102341.56;5204929;28;20036;-74
2022/11/30 05:52:18;;;;;;;123.57;30.58;;;;;;;4.96;100.00;102342.69;5205127;28;20163;-74
2022/11/30 05:54:48;;;;;;;127.95;30.58;;;;;;;4.95;100.00;102351.63;5204803;28;20049;-74
2022/11/30 05:57:18;;;;;;;139.10;33.42;;;;;;;4.95;100.00;102340.97;5203183;28;20032;-74
2022/11/30 05:59:49;;;;;;;138.93;31.55;;;;;;;4.90;100.00;102341.25;5204866;28;20514;-74
2022/11/30 06:02:19;;;;;;;148.52;34.58;;;;;;;4.87;100.00;102346.78;5205193;28;20479;-74
2022/11/30 06:04:50;;;;;;;174.07;47.00;;;;;;;4.86;100.00;102346.84;5204636;28;20048;-74
2022/11/30 06:07:20;;;;;;;163.95;35.55;;;;;;;4.87;100.00;102359.19;5204162;28;20029;-74
2022/11/30 06:09:51;;;;;;;163.85;33.40;;;;;;;4.93;100.00;102354.38;5203980;28;20026;-74
2022/11/30 06:12:21;;;;;;;134.95;32.33;;;;;;;4.88;100.00;102356.47;5204675;28;20037;-73
2022/11/30 06:14:52;;;;;;;135.63;34.08;;;;;;;4.89;100.00;102350.19;5205217;28;20021;-75
2022/11/30 06:17:22;;;;;;;149.70;33.25;;;;;;;4.90;100.00;102364.34;5204236;28;20080;-74
2022/11/30 06:19:53;;;;;;;128.73;30.92;;;;;;;4.93;100.00;102361.50;5204838;28;20029;-74
2022/11/30 06:22:23;;;;;;;126.43;30.17;;;;;;;4.96;100.00;102361.31;5204122;28;20109;-74
2022/11/30 06:24:54;;;;;;;140.65;31.48;;;;;;;4.99;100.00;102368.25;5204204;28;20048;-74
2022/11/30 06:27:24;;;;;;;130.88;35.60;;;;;;;4.97;100.00;102365.69;5198687;28;20100;-75
2022/11/30 06:29:55;;;;;;;190.93;49.90;;;;;;;4.94;100.00;102363.22;5196249;28;20045;-74
2022/11/30 06:32:25;;;;;;;166.00;44.55;;;;;;;4.92;100.00;102363.31;5204019;28;20033;-74
2022/11/30 06:34:56;;;;;;;181.55;37.53;;;;;;;4.92;100.00;102363.31;5203841;28;20021;-74
2022/11/30 06:37:26;;;;;;;186.38;34.58;;;;;;;4.95;100.00;102362.25;5203767;28;20080;-73
2022/11/30 06:39:56;;;;;;;137.77;32.67;;;;;;;5.01;100.00;102377.00;5204169;28;20035;-73
2022/11/30 06:42:29;;;;;;;190.20;36.53;;;;;;;5.04;100.00;102367.03;5204374;28;20049;-73
2022/11/30 06:44:59;;;;;;;152.48;35.72;;;;;;;5.07;100.00;102374.84;5203860;28;20029;-73
2022/11/30 06:47:30;;;;;;;155.25;35.50;;;;;;;5.03;100.00;102375.09;5203398;28;20022;-73
2022/11/30 06:50:00;;;;;;;142.05;32.17;;;;;;;5.00;100.00;102372.63;5204167;28;20033;-73
2022/11/30 06:52:31;;;;;;;147.27;34.38;;;;;;;4.96;100.00;102373.75;5203963;28;20028;-73
2022/11/30 06:55:01;;;;;;;149.27;32.45;;;;;;;4.97;100.00;102380.78;5204136;28;20458;-73
2022/11/30 06:57:32;;;;;;;141.30;33.50;;;;;;;4.97;100.00;102376.34;5203899;28;20025;-73
2022/11/30 07:00:03;;;;;;;125.25;28.75;;;;;;;4.97;100.00;102378.13;5203299;28;20017;-73
2022/11/30 07:02:35;;;;;;;130.50;32.58;;;;;;;5.00;100.00;102384.13;5203723;28;20017;-73
2022/11/30 07:05:05;;;;;;;134.77;28.85;;;;;;;4.96;100.00;102379.91;5203672;28;20029;-73
2022/11/30 07:07:36;;;;;;;125.57;29.17;;;;;;;4.96;100.00;102379.06;5203221;28;20104;-73
2022/11/30 07:10:07;;;;;;;147.98;32.83;;;;;;;4.93;100.00;102382.78;5202287;28;20040;-73
2022/11/30 07:12:37;;;;;;;125.55;29.98;;;;;;;4.90;100.00;102382.97;5203338;28;20116;-73
2022/11/30 07:15:10;;;;;;;110.75;28.85;;;;;;;4.89;100.00;102386.56;5203880;28;20053;-72
2022/11/30 07:17:40;;;;;;;125.53;29.50;;;;;;;4.90;100.00;102389.13;5203190;28;20017;-73
2022/11/30 07:20:11;;;;;;;131.48;29.02;;;;;;;4.86;100.00;102389.41;5203474;28;20088;-73
2022/11/30 07:22:41;;;;;;;113.68;26.85;;;;;;;4.84;100.00;102386.84;5203052;28;20024;-73
2022/11/30 07:28:03;;;;;;;115.25;28.38;;;;;;;4.93;100.00;102404.06;5194386;28;20029;-74
2022/11/30 07:30:34;;;;;;;109.70;27.60;;;;;;;4.93;100.00;102396.94;5194379;28;20069;-74
2022/11/30 07:33:05;;;;;;;116.68;28.40;;;;;;;4.93;100.00;102404.06;5200283;28;20089;-74
2022/11/30 07:35:35;;;;;;;104.25;27.55;;;;;;;4.92;100.00;102413.84;5201490;28;20091;-74
2022/11/30 07:38:06;;;;;;;105.88;28.05;;;;;;;4.93;100.00;102415.56;5201956;28;20348;-74
2022/11/30 07:40:36;;;;;;;109.03;28.27;;;;;;;4.94;100.00;102414.59;5201734;28;20094;-74
2022/11/30 07:43:07;;;;;;;137.07;31.67;;;;;;;4.92;100.00;102413.84;5201745;28;20041;-74
2022/11/30 07:45:37;;;;;;;120.18;30.23;;;;;;;4.87;100.00;102418.59;5200700;28;20475;-74
2022/11/30 07:48:08;;;;;;;106.82;29.27;;;;;;;4.90;100.00;102421.03;5200070;28;20017;-74
2022/11/30 07:50:39;;;;;;;120.82;31.25;;;;;;;4.91;100.00;102419.22;5202138;28;20100;-74
2022/11/30 07:53:09;;;;;;;99.15;27.58;;;;;;;4.96;100.00;102429.59;5202029;28;20060;-74
2022/11/30 07:55:40;;;;;;;101.28;27.30;;;;;;;4.94;100.00;102427.91;5202115;28;20108;-73
2022/11/30 07:58:11;;;;;;;93.82;25.50;;;;;;;4.94;100.00;102433.22;5206220;28;20057;-74
2022/11/30 08:00:41;;;;;;;131.48;29.35;;;;;;;4.94;100.00;102437.69;5210536;28;20347;-74
2022/11/30 08:03:12;;;;;;;86.90;27.95;;;;;;;5.01;100.00;102441.69;5207570;28;20494;-74
2022/11/30 08:05:42;;;;;;;97.30;28.33;;;;;;;4.97;100.00;102434.84;5205350;28;20052;-74
2022/11/30 08:08:13;;;;;;;100.00;30.23;;;;;;;4.97;100.00;102445.50;5205589;28;20450;-74
2022/11/30 08:10:43;;;;;;;104.00;27.30;;;;;;;5.01;100.00;102448.81;5205159;28;20040;-74
2022/11/30 08:13:14;;;;;;;109.78;30.45;;;;;;;5.02;100.00;102440.75;5206161;28;20022;-74
2022/11/30 08:15:44;;;;;;;107.68;30.77;;;;;;;5.05;100.00;102442.34;5205060;28;20032;-74
2022/11/30 08:18:15;;;;;;;125.95;31.05;;;;;;;5.03;100.00;102439.81;5205231;28;20072;-74
2022/11/30 08:20:45;;;;;;;155.35;31.35;;;;;;;5.05;100.00;102442.34;5205355;28;20036;-72
2022/11/30 08:23:15;;;;;;;100.10;30.02;;;;;;;5.04;100.00;102448.63;5205220;28;20021;-74
2022/11/30 08:25:46;;;;;;;93.47;26.17;;;;;;;5.15;100.00;102447.03;5204695;28;20105;-74
2022/11/30 08:28:17;;;;;;;106.85;25.75;;;;;;;5.13;100.00;102450.75;5205236;28;20052;-74
2022/11/30 08:30:47;;;;;;;102.90;30.63;;;;;;;5.08;100.00;102447.50;5205320;28;20022;-73
2022/11/30 08:33:17;;;;;;;103.63;29.90;;;;;;;5.02;100.00;102454.06;5204505;28;20030;-74
2022/11/30 08:35:48;;;;;;;114.32;29.83;;;;;;;5.04;100.00;102454.81;5204690;28;20120;-74
2022/11/30 08:38:18;;;;;;;158.98;30.70;;;;;;;5.08;100.00;102458.16;5204906;28;20052;-74
2022/11/30 08:40:49;;;;;;;93.20;28.65;;;;;;;5.18;100.00;102467.28;5205374;28;20035;-73
2022/11/30 08:43:19;;;;;;;94.38;28.20;;;;;;;5.26;100.00;102467.66;5205363;28;20024;-74
2022/11/30 08:45:50;;;;;;;135.80;31.00;;;;;;;5.23;100.00;102462.56;5204614;28;20025;-74
2022/11/30 08:48:20;;;;;;;101.00;31.23;;;;;;;5.22;100.00;102465.28;5204373;28;20025;-74
2022/11/30 08:50:51;;;;;;;111.47;29.23;;;;;;;5.27;100.00;102461.44;5204918;28;20100;-74
2022/11/30 08:53:21;;;;;;;96.90;28.05;;;;;;;5.31;100.00;102470.91;5204776;28;20645;-74
2022/11/30 08:55:59;;;;;;;98.88;28.23;;;;;;;5.38;100.00;102468.75;5205244;28;20040;-74
2022/11/30 08:58:32;;;;;;;93.25;28.65;;;;;;;5.38;100.00;102476.75;5204412;28;20030;-74
2022/11/30 09:01:10;;;;;;;102.47;29.33;;;;;;;5.40;100.00;102473.03;5204998;28;20026;-74
2022/11/30 09:03:42;;;;;;;114.22;30.70;;;;;;;5.48;100.00;102471.72;5205168;28;20544;-74
2022/11/30 09:06:18;;;;;;;108.78;32.13;;;;;;;5.51;100.00;102476.84;5204408;28;20071;-74
2022/11/30 09:08:50;;;;;;;122.80;32.67;;;;;;;5.52;100.00;102478.53;5203066;28;20044;-75
2022/11/30 09:11:23;;;;;;;118.32;30.52;;;;;;;5.50;100.00;102475.97;5204529;28;20471;-75
2022/11/30 09:13:56;;;;;;;105.32;31.65;;;;;;;5.51;100.00;102472.38;5203656;28;20029;-75
2022/11/30 09:16:27;;;;;;;87.70;28.23;;;;;;;5.53;100.00;102478.47;5204726;28;20048;-74
2022/11/30 09:18:58;;;;;;;106.32;32.65;;;;;;;5.53;100.00;102485.59;5204325;28;20026;-74
2022/11/30 09:21:28;;;;;;;98.22;29.80;;;;;;;5.56;100.00;102480.94;5204345;28;20045;-74
2022/11/30 09:23:59;;;;;;;106.97;29.85;;;;;;;5.57;100.00;102485.31;5204841;28;20021;-74
2022/11/30 09:26:29;;;;;;;90.60;29.63;;;;;;;5.65;100.00;102490.16;5203279;28;20120;-74
2022/11/30 09:28:59;;;;;;;100.13;32.10;;;;;;;5.60;100.00;102484.25;5210328;28;20028;-74
2022/11/30 09:31:30;;;;;;;84.47;28.23;;;;;;;5.76;100.00;102486.84;5211040;28;20032;-74
2022/11/30 09:34:01;;;;;;;97.03;29.85;;;;;;;5.74;100.00;102483.41;5213082;28;20095;-74
2022/11/30 09:36:32;;;;;;;91.65;29.10;;;;;;;5.75;100.00;102487.78;5212240;28;20086;-74
2022/11/30 09:39:03;;;;;;;88.63;30.40;;;;;;;5.79;100.00;102489.31;5215483;28;20029;-74
2022/11/30 09:41:34;;;;;;;91.57;28.52;;;;;;;5.73;100.00;102490.56;5213809;28;20025;-75
2022/11/30 09:44:26;;;;;;;96.20;31.27;;;;;;;5.76;100.00;102495.69;5211995;28;20036;-74
2022/11/30 09:47:09;;;;;;;88.47;28.17;;;;;;;5.77;100.00;102500.03;5212786;28;20065;-74
2022/11/30 09:49:43;;;;;;;93.07;30.92;;;;;;;5.78;100.00;102490.28;5213320;28;20036;-74
2022/11/30 09:52:23;;;;;;;79.03;26.45;;;;;;;5.81;100.00;102493.59;5217836;28;20025;-74
2022/11/30 09:54:55;;;;;;;75.20;26.98;;;;;;;5.92;100.00;102488.50;5211117;28;20059;-74
2022/11/30 09:57:30;;;;;;;78.13;29.38;;;;;;;5.92;100.00;102488.50;5215713;28;20033;-75
2022/11/30 10:00:04;;;;;;;;;;;;;;;5.87;100.00;102485.22;5213675;28;20025;-73
2022/11/30 10:02:37;;;;;;;74.40;26.25;;;;;;;5.94;100.00;102483.91;5213187;28;19978;-73
2022/11/30 10:05:16;;;;;;;77.90;28.65;;;;;;;5.95;100.00;102493.63;5211846;28;20033;-73
2022/11/30 10:07:52;;;;;;;78.32;27.42;;;;;;;6.00;100.00;102496.00;5211837;28;20036;-73
2022/11/30 10:10:42;;;;;;;86.40;27.05;;;;;;;6.02;100.00;102499.41;5214705;28;20379;-73
2022/11/30 10:13:30;;;;;;;102.20;31.35;;;;;;;6.05;100.00;102495.72;5216692;28;20033;-73
2022/11/30 10:16:26;;;;;;;95.05;32.33;;;;;;;6.18;100.00;102501.97;5211212;28;20112;-73
2022/11/30 10:19:17;;;;;;;96.53;32.08;;;;;;;6.22;100.00;102492.81;5213757;28;20021;-73
2022/11/30 10:22:17;;;;;;;89.03;30.15;;;;;;;6.18;100.00;102488.66;5215921;28;20021;-73
2022/11/30 10:25:14;;;;;;;85.40;28.40;;;;;;;6.18;100.00;102499.31;5212492;28;20429;-74
2022/11/30 10:27:49;;;;;;;86.70;31.13;;;;;;;6.23;100.00;102497.22;5209040;28;20124;-73
2022/11/30 10:30:32;;;;;;;80.57;27.80;;;;;;;6.20;100.00;102492.06;5215703;28;20385;-73
2022/11/30 10:33:15;;;;;;;88.15;28.50;;;;;;;6.21;100.00;102494.63;5205983;28;20021;-73
2022/11/30 10:35:55;;;;;;;94.00;30.90;;;;;;;6.24;100.00;102488.25;5208476;28;20037;-73
2022/11/30 10:38:30;;;;;;;92.70;30.67;;;;;;;6.25;100.00;102489.13;5204488;28;20112;-73
2022/11/30 10:41:10;;;;;;;97.28;29.85;;;;;;;6.26;100.00;102481.00;5213357;28;20033;-74
2022/11/30 10:43:47;;;;;;;84.78;28.30;;;;;;;6.38;100.00;102482.91;5210487;28;20017;-73
2022/11/30 10:46:26;;;;;;;79.75;27.70;;;;;;;6.38;100.00;102482.91;5204781;28;20370;-73
2022/11/30 10:49:05;;;;;;;85.72;28.60;;;;;;;6.35;100.00;102483.09;5209664;28;20075;-73
2022/11/30 10:51:37;;;;;;;93.90;29.55;;;;;;;6.30;100.00;102479.88;5194424;28;20488;-73
2022/11/30 10:54:14;;;;;;;84.43;28.70;;;;;;;6.34;100.00;102478.72;5205123;28;20025;-73
2022/11/30 10:56:46;;;;;;;86.75;29.85;;;;;;;6.46;100.00;102477.91;5202044;28;20025;-73
2022/11/30 10:59:29;;;;;;;86.43;28.98;;;;;;;6.47;100.00;102482.28;5200520;28;20413;-73
2022/11/30 11:02:00;;;;;;;94.60;30.92;;;;;;;6.52;100.00;102483.78;5200995;28;20037;-73
2022/11/30 11:04:30;;;;;;;85.00;29.25;;;;;;;6.54;100.00;102472.09;5201751;28;20037;-73
2022/11/30 11:07:08;;;;;;;91.47;29.15;;;;;;;6.56;100.00;102466.66;5201592;28;20033;-73
2022/11/30 11:09:49;;;;;;;89.60;29.33;;;;;;;6.48;100.00;102468.03;5202081;28;20029;-74
2022/11/30 11:12:24;;;;;;;99.93;30.80;;;;;;;6.56;100.00;102464.84;5201711;28;20037;-73
2022/11/30 11:15:20;;;;;;;94.63;32.15;;;;;;;6.56;100.00;102466.66;5201814;28;20029;-74
2022/11/30 11:17:52;;;;;;;101.95;33.28;;;;;;;6.55;100.00;102465.78;5198506;28;20487;-73
2022/11/30 11:20:30;;;;;;;97.13;32.10;;;;;;;6.55;100.00;102464.94;5201979;28;20333;-73
2022/11/30 11:23:02;;;;;;;100.20;30.23;;;;;;;6.60;100.00;102468.16;5189167;28;20036;-73
2022/11/30 11:25:36;;;;;;;116.50;33.75;;;;;;;6.65;100.00;102469.56;5199228;28;20037;-73
2022/11/30 11:28:14;;;;;;;111.00;31.95;;;;;;;6.70;100.00;102464.78;5210715;28;20406;-73
2022/11/30 11:30:44;;;;;;;113.10;34.80;;;;;;;6.72;100.00;102473.53;5210464;28;20475;-73
2022/11/30 11:33:22;;;;;;;119.53;38.22;;;;;;;6.79;100.00;102473.16;5215652;28;20028;-73